KDYS/DYS METAR and TAF weather

Enter ICAO airport designator
Station Type Date Time Source
KDYS METAR 2018/09/20 17:56 UTC NOAA

KDYS 201756Z 20015KT 10SM BKN040 BKN070 30/18 A2997 RMK AO2A SLP117 WND DATA ESTMD ALSTG/SLP ESTMD $


Station Type Date Time Source
KDYS Decoded METAR 2018/09/20 17:56 UTC NOAA

Abilene, Dyess Air Force Base, TX, United States (KDYS) 32-25-12N 099-51-25W
Sep 20, 2018 - 01:56 PM EDT / 2018.09.20 1756 UTC
Wind: from the SSW (200 degrees) at 17 MPH (15 KT):0
Visibility: 10 mile(s):0
Sky conditions: mostly cloudy
Temperature: 86 F (30 C)
Dew Point: 64 F (18 C)
Relative Humidity: 48%
Pressure (altimeter): 29.97 in. Hg (1014 hPa)
ob: KDYS 201756Z 20015KT 10SM BKN040 BKN070 30/18 A2997 RMK AO2A SLP117 WND DATA ESTMD ALSTG/SLP ESTMD
cycle: 18

Station Type Date Time Source
KDYS TAF 2018/09/20 16:48 UTC NOAA

TAF KDYS 201650Z 2016/2122 18012G18KT 9999 BKN020 QNH2997INS
BECMG 2018/2019 19015G25KT 9999 BKN020 QNH2988INS
BECMG 2023/2024 17009KT 9999 BKN020 QNH2988INS
BECMG 2108/2109 18010KT 9999 BKN008 OVC030 QNH2988INS
BECMG 2114/2115 18012G18KT 9999 BKN015 OVC060 QNH2989INS
TEMPO 2119/2122 4800 -TSRA BKN020CB TX31/2020Z TN23/2108Z


Example: see airport list